Mollet del Valles, Spain
Current Conditions -  °F | °C
As of 9:30 AM on Friday 24 Oct 2014 (Local Time) from LELL Reporting Station
Clear Clear  
Wind Chill: 55°   Ceiling: Unl
Heat Index: 55°   Visibility: 6mi
Dew Point: 48°   Wind: 1mph
Humidity: 77%   Direction: NA
Pressure: 30.03"   Gusts: NA
Location:  41.54°N, 2.21°E
Report Text: LELL 240730Z VRB01KT CAVOK 13/09 Q1017
Loading
Personal Weather Stations






























Interactive Weather Map
Tropical Storm Tracking
New forecast layout! Learn more

10-Day Weather Forecast

Advertisements
Track Severe Weather on mobile